Time;durP1;ratioP1;P1;durP2;ratioP2;P2;SDS_P1;SDS_P2;PMS_P1;PMS_P2;Temp;Humidity;BMP_temperature;BMP_pressure;BME280_temperature;BME280_humidity;BME280_pressure;Samples;Min_cycle;Max_cycle;Signal;HPM_P1;HPM_P2
2021/09/13 00:02:30;;;;;;;11.82;6.63;;;;;;;13.84;100.00;101916.34;5200907;28;20033;-73
2021/09/13 00:05:00;;;;;;;6.90;5.30;;;;;;;13.81;100.00;101913.97;5216138;28;20375;-72
2021/09/13 00:07:31;;;;;;;7.60;5.18;;;;;;;13.83;100.00;101926.28;5201151;28;20103;-73
2021/09/13 00:10:02;;;;;;;7.07;4.70;;;;;;;13.83;100.00;101914.66;5200755;28;20056;-73
2021/09/13 00:12:32;;;;;;;9.95;5.03;;;;;;;13.90;100.00;101921.09;5200788;28;20025;-73
2021/09/13 00:15:04;;;;;;;14.82;5.22;;;;;;;13.87;100.00;101922.25;5200688;28;20051;-73
2021/09/13 00:17:34;;;;;;;10.35;5.32;;;;;;;13.88;100.00;101915.84;5200849;28;20033;-73
2021/09/13 00:20:06;;;;;;;10.27;5.55;;;;;;;13.89;100.00;101908.59;5200371;28;20025;-73
2021/09/13 00:22:37;;;;;;;8.48;5.68;;;;;;;13.86;100.00;101914.34;5200672;28;20037;-73
2021/09/13 00:25:08;;;;;;;8.63;4.95;;;;;;;13.83;100.00;101912.81;5201470;28;20052;-74
2021/09/13 00:27:38;;;;;;;7.65;4.55;;;;;;;13.84;100.00;101913.63;5200782;28;20036;-73
2021/09/13 00:30:09;;;;;;;10.35;5.65;;;;;;;13.84;100.00;101916.34;5200783;28;20021;-73
2021/09/13 00:32:39;;;;;;;10.95;4.57;;;;;;;13.79;100.00;101903.34;5200487;28;20033;-73
2021/09/13 00:35:10;;;;;;;11.98;5.15;;;;;;;13.89;100.00;101908.59;5200303;28;20026;-73
2021/09/13 00:37:40;;;;;;;12.77;5.03;;;;;;;14.00;100.00;101911.00;5200763;28;20262;-73
2021/09/13 00:40:11;;;;;;;9.68;4.70;;;;;;;14.08;100.00;101902.09;5200401;28;20398;-73
2021/09/13 00:42:42;;;;;;;10.85;4.85;;;;;;;14.02;100.00;101897.38;5195955;28;20104;-73
2021/09/13 00:45:12;;;;;;;10.70;4.80;;;;;;;13.89;100.00;101895.97;5200388;28;20045;-72
2021/09/13 00:47:43;;;;;;;10.98;4.82;;;;;;;13.80;100.00;101909.56;5200323;28;20048;-71
2021/09/13 00:50:13;;;;;;;11.13;5.05;;;;;;;13.68;100.00;101903.63;5200410;28;20113;-72
2021/09/13 00:52:50;;;;;;;9.02;4.53;;;;;;;13.57;100.00;101899.38;5200397;28;20029;-72
2021/09/13 00:55:22;;;;;;;7.63;4.82;;;;;;;13.46;100.00;101895.09;5200085;28;20056;-72
2021/09/13 00:57:54;;;;;;;12.07;6.07;;;;;;;13.39;100.00;101906.66;5200651;28;20029;-72
2021/09/13 01:00:25;;;;;;;8.05;5.60;;;;;;;13.34;100.00;101911.69;5200002;28;20021;-72
2021/09/13 01:02:55;;;;;;;12.00;6.32;;;;;;;13.30;100.00;101910.28;5200981;28;20032;-72
2021/09/13 01:05:26;;;;;;;12.32;6.03;;;;;;;13.28;100.00;101904.22;5200687;28;20029;-72
2021/09/13 01:07:56;;;;;;;8.65;5.97;;;;;;;13.30;100.00;101908.44;5201314;28;20074;-72
2021/09/13 01:10:28;;;;;;;10.75;5.80;;;;;;;13.32;100.00;101905.63;5200360;28;20026;-72
2021/09/13 01:12:59;;;;;;;10.48;5.35;;;;;;;13.34;100.00;101909.81;5200846;28;20426;-73
2021/09/13 01:15:29;;;;;;;8.93;5.30;;;;;;;13.34;100.00;101904.44;5200959;28;20382;-73
2021/09/13 01:18:00;;;;;;;9.23;5.35;;;;;;;13.31;100.00;101902.06;5201232;28;20121;-72
2021/09/13 01:20:31;;;;;;;11.15;5.78;;;;;;;13.30;100.00;101908.44;5200927;28;20026;-73
2021/09/13 01:23:07;;;;;;;9.15;5.93;;;;;;;13.30;100.00;101907.59;5200259;28;20045;-71
2021/09/13 01:25:38;;;;;;;9.63;5.75;;;;;;;13.31;100.00;101906.63;5200596;28;20076;-72
2021/09/13 01:28:08;;;;;;;10.80;6.55;;;;;;;13.33;100.00;101910.00;5200887;28;20059;-72
2021/09/13 01:30:39;;;;;;;13.10;6.85;;;;;;;13.33;100.00;101901.91;5201627;28;20120;-73
2021/09/13 01:33:09;;;;;;;9.13;6.25;;;;;;;13.34;100.00;101898.19;5204383;28;20105;-73
2021/09/13 01:35:40;;;;;;;10.50;6.45;;;;;;;13.35;100.00;101906.13;5204278;28;20021;-73
2021/09/13 01:38:11;;;;;;;13.20;7.13;;;;;;;13.36;100.00;101909.69;5204614;28;20021;-73
2021/09/13 01:40:42;;;;;;;14.43;7.28;;;;;;;13.35;100.00;101913.38;5204021;28;20037;-73
2021/09/13 01:43:13;;;;;;;9.18;6.63;;;;;;;13.31;100.00;101912.84;5204218;28;20542;-75
2021/09/13 01:45:44;;;;;;;10.88;6.63;;;;;;;13.30;100.00;101902.22;5204001;28;20398;-72
2021/09/13 01:48:18;;;;;;;14.60;7.13;;;;;;;13.31;100.00;101906.63;5203874;28;20033;-73
2021/09/13 01:50:50;;;;;;;10.57;6.50;;;;;;;13.31;100.00;101909.31;5203964;28;20021;-73
2021/09/13 01:53:24;;;;;;;7.53;5.70;;;;;;;13.33;100.00;101907.28;5204358;28;20017;-72
2021/09/13 01:55:54;;;;;;;10.23;6.30;;;;;;;13.34;100.00;101899.03;5203759;28;20037;-72
2021/09/13 01:58:25;;;;;;;12.88;5.80;;;;;;;13.37;100.00;101897.91;5204222;28;20107;-73
2021/09/13 02:01:02;;;;;;;11.23;7.30;;;;;;;13.37;100.00;101889.81;5203817;28;20022;-72
2021/09/13 02:03:42;;;;;;;14.00;6.47;;;;;;;13.33;100.00;101886.56;5203993;28;20025;-72
2021/09/13 02:06:13;;;;;;;16.20;7.15;;;;;;;13.28;100.00;101888.91;5203590;28;20036;-72
2021/09/13 02:08:44;;;;;;;11.63;7.32;;;;;;;13.25;100.00;101882.97;5203964;28;20052;-72
2021/09/13 02:11:15;;;;;;;12.25;7.15;;;;;;;13.20;100.00;101881.59;5203108;28;20438;-72
2021/09/13 02:13:45;;;;;;;12.70;7.03;;;;;;;13.15;100.00;101877.66;5203885;28;20021;-72
2021/09/13 02:16:16;;;;;;;15.60;6.93;;;;;;;13.07;100.00;101878.47;5203064;28;20040;-72
2021/09/13 02:18:47;;;;;;;12.07;6.35;;;;;;;13.01;100.00;101876.41;5202957;28;20025;-74
2021/09/13 02:21:17;;;;;;;14.40;6.53;;;;;;;12.99;100.00;101869.47;5202725;28;20075;-71
2021/09/13 02:23:48;;;;;;;9.23;5.78;;;;;;;13.02;100.00;101877.25;5203458;28;20033;-72
2021/09/13 02:26:18;;;;;;;10.27;6.50;;;;;;;12.97;100.00;101875.03;5202903;28;20269;-72
2021/09/13 02:28:48;;;;;;;10.60;6.50;;;;;;;12.90;100.00;101871.25;5203680;28;20425;-72
2021/09/13 02:31:19;;;;;;;11.15;6.60;;;;;;;12.86;100.00;101872.59;5202499;28;20036;-73
2021/09/13 02:33:49;;;;;;;19.77;7.60;;;;;;;12.82;100.00;101873.91;5203238;28;20382;-73
2021/09/13 02:36:20;;;;;;;16.20;7.38;;;;;;;12.85;100.00;101873.56;5203017;28;20454;-72
2021/09/13 02:38:50;;;;;;;15.90;6.97;;;;;;;12.87;100.00;101879.66;5203546;28;20025;-72
2021/09/13 02:41:21;;;;;;;14.57;7.10;;;;;;;12.78;100.00;101875.19;5202641;28;20400;-73
2021/09/13 02:43:51;;;;;;;15.88;6.78;;;;;;;12.69;100.00;101876.97;5203088;28;20034;-73
2021/09/13 02:46:22;;;;;;;14.90;7.85;;;;;;;12.62;100.00;101875.91;5202493;28;20035;-72
2021/09/13 02:48:52;;;;;;;14.75;7.30;;;;;;;12.54;100.00;101878.50;5203009;28;20033;-72
2021/09/13 02:51:23;;;;;;;17.63;7.78;;;;;;;12.46;100.00;101875.78;5202510;28;20105;-72
2021/09/13 02:53:54;;;;;;;14.43;7.95;;;;;;;12.38;100.00;101871.97;5203014;28;20105;-72
2021/09/13 02:56:24;;;;;;;12.40;7.38;;;;;;;12.30;100.00;101876.41;5202689;28;20021;-74
2021/09/13 02:58:55;;;;;;;17.75;8.43;;;;;;;12.22;100.00;101881.75;5202716;28;20021;-74
2021/09/13 03:01:25;;;;;;;20.70;8.52;;;;;;;12.14;100.00;101879.78;5202573;28;20074;-73
2021/09/13 03:03:55;;;;;;;12.60;8.80;;;;;;;12.08;100.00;101880.41;5202819;28;20028;-73
2021/09/13 03:06:26;;;;;;;16.15;8.75;;;;;;;12.03;100.00;101886.22;5202630;28;20522;-73
2021/09/13 03:08:57;;;;;;;15.95;8.38;;;;;;;11.99;100.00;101889.38;5203331;28;20380;-74
2021/09/13 03:11:27;;;;;;;14.93;8.52;;;;;;;11.92;100.00;101883.75;5201554;28;20036;-73
2021/09/13 03:13:58;;;;;;;16.55;8.95;;;;;;;11.91;100.00;101885.59;5202794;28;20327;-73
2021/09/13 03:16:28;;;;;;;12.90;7.45;;;;;;;11.86;100.00;101878.97;5202082;28;20052;-73
2021/09/13 03:18:58;;;;;;;16.20;8.55;;;;;;;11.83;100.00;101880.13;5202718;28;20526;-73
2021/09/13 03:21:29;;;;;;;21.25;8.77;;;;;;;11.82;100.00;101880.28;5202131;28;20041;-72
2021/09/13 03:23:59;;;;;;;21.02;9.10;;;;;;;11.84;100.00;101881.78;5202365;28;20022;-72
2021/09/13 03:26:30;;;;;;;15.13;8.98;;;;;;;11.79;100.00;101881.38;5201812;28;20037;-72
2021/09/13 03:29:01;;;;;;;20.40;10.32;;;;;;;11.70;100.00;101859.91;5202611;28;20026;-72
2021/09/13 03:31:31;;;;;;;16.08;9.32;;;;;;;11.65;100.00;101874.66;5201959;28;20033;-72
2021/09/13 03:34:02;;;;;;;19.20;10.45;;;;;;;11.61;100.00;101886.69;5202492;28;20136;-72
2021/09/13 03:36:34;;;;;;;20.00;9.23;;;;;;;11.55;100.00;101887.28;5201563;28;20033;-72
2021/09/13 03:39:06;;;;;;;17.40;9.27;;;;;;;11.46;100.00;101885.47;5202130;28;20026;-72
2021/09/13 03:41:37;;;;;;;21.23;9.70;;;;;;;11.40;100.00;101886.91;5201367;28;20032;-71
2021/09/13 03:44:07;;;;;;;17.77;8.25;;;;;;;11.32;100.00;101889.47;5201853;28;20033;-73
2021/09/13 03:46:38;;;;;;;20.90;10.85;;;;;;;11.28;100.00;101881.84;5201519;28;20080;-73
2021/09/13 03:49:08;;;;;;;9.57;5.88;;;;;;;11.19;100.00;101874.66;5201372;28;20514;-72
2021/09/13 03:51:39;;;;;;;16.33;7.10;;;;;;;11.11;100.00;101884.31;5201601;28;20044;-72
2021/09/13 03:54:09;;;;;;;10.40;6.15;;;;;;;11.04;100.00;101871.59;5201446;28;20049;-73
2021/09/13 03:56:40;;;;;;;12.27;6.38;;;;;;;11.02;100.00;101873.56;5201733;28;20084;-72
2021/09/13 03:59:10;;;;;;;11.07;6.88;;;;;;;10.98;100.00;101881.06;5201690;28;20025;-72
2021/09/13 04:01:41;;;;;;;13.75;6.82;;;;;;;10.97;100.00;101876.69;5201164;28;20108;-74
2021/09/13 04:04:13;;;;;;;16.75;8.13;;;;;;;10.94;100.00;101881.50;5201601;28;20025;-72
2021/09/13 04:06:47;;;;;;;19.38;8.63;;;;;;;10.92;100.00;101878.97;5201185;28;20030;-72
2021/09/13 04:12:04;;;;;;;17.73;7.72;;;;;;;10.88;100.00;101880.22;5201047;28;20030;-72
2021/09/13 04:14:34;;;;;;;20.65;8.82;;;;;;;10.88;100.00;101880.22;5201813;28;20026;-72
2021/09/13 04:17:05;;;;;;;21.17;8.55;;;;;;;10.85;100.00;101872.47;5201321;28;20026;-73
2021/09/13 04:19:36;;;;;;;15.35;8.40;;;;;;;10.81;100.00;101871.91;5201482;28;20026;-72
2021/09/13 04:22:07;;;;;;;20.90;9.07;;;;;;;10.78;100.00;101876.72;5201045;28;20036;-72
2021/09/13 04:24:37;;;;;;;20.58;9.30;;;;;;;10.73;100.00;101879.81;5201200;28;20041;-73
2021/09/13 04:27:07;;;;;;;18.83;9.93;;;;;;;10.69;100.00;101875.72;5201207;28;20510;-73
2021/09/13 04:29:38;;;;;;;21.45;10.32;;;;;;;10.66;100.00;101877.88;5201324;28;20029;-74
2021/09/13 04:32:09;;;;;;;18.88;9.80;;;;;;;10.62;100.00;101883.50;5201016;28;20029;-72
2021/09/13 04:34:39;;;;;;;43.38;10.48;;;;;;;10.56;100.00;101878.72;5201224;28;20101;-74
2021/09/13 04:37:09;;;;;;;18.25;9.38;;;;;;;10.51;100.00;101877.44;5200959;28;20053;-72
2021/09/13 04:39:40;;;;;;;16.98;8.57;;;;;;;10.48;100.00;101877.72;5200976;28;20389;-73
2021/09/13 04:42:10;;;;;;;17.83;8.73;;;;;;;10.45;100.00;101878.84;5200791;28;20097;-72
2021/09/13 04:44:41;;;;;;;11.80;7.07;;;;;;;10.43;100.00;101883.50;5201146;28;20403;-73
2021/09/13 04:47:11;;;;;;;9.70;5.43;;;;;;;10.39;100.00;101882.06;5201382;28;20078;-72
2021/09/13 04:49:42;;;;;;;11.57;6.57;;;;;;;10.37;100.00;101889.41;5201140;28;20037;-73
2021/09/13 04:52:12;;;;;;;23.20;8.85;;;;;;;10.40;100.00;101882.94;5200610;28;20025;-72
2021/09/13 04:54:43;;;;;;;17.90;8.50;;;;;;;10.42;100.00;101868.38;5200925;28;20061;-73
2021/09/13 04:57:13;;;;;;;18.65;8.20;;;;;;;10.45;100.00;101880.69;5200806;28;20060;-72
2021/09/13 04:59:44;;;;;;;16.42;9.25;;;;;;;10.45;100.00;101876.16;5200873;28;20072;-71
2021/09/13 05:02:14;;;;;;;21.58;10.07;;;;;;;10.49;100.00;101877.59;5200673;28;20279;-74
2021/09/13 05:04:45;;;;;;;22.50;10.85;;;;;;;10.50;100.00;101879.28;5216139;28;20060;-75
2021/09/13 05:07:15;;;;;;;21.30;9.90;;;;;;;10.47;100.00;101870.66;5204916;28;20479;-73
2021/09/13 05:09:46;;;;;;;23.60;11.93;;;;;;;10.42;100.00;101870.22;5204768;28;20048;-73
2021/09/13 05:12:16;;;;;;;27.23;13.38;;;;;;;10.38;100.00;101883.91;5204273;28;20557;-72
2021/09/13 05:14:46;;;;;;;22.02;11.82;;;;;;;10.35;100.00;101881.53;5204896;28;20030;-73
2021/09/13 05:17:17;;;;;;;24.35;11.13;;;;;;;10.35;100.00;101886.03;5204694;28;20032;-74
2021/09/13 05:19:47;;;;;;;23.00;11.48;;;;;;;10.36;100.00;101879.69;5204877;28;20490;-73
2021/09/13 05:22:18;;;;;;;23.60;11.13;;;;;;;10.40;100.00;101880.25;5204453;28;20112;-73
2021/09/13 05:24:48;;;;;;;24.58;12.25;;;;;;;10.40;100.00;101870.38;5204191;28;20286;-73
2021/09/13 05:27:19;;;;;;;22.33;10.98;;;;;;;10.38;100.00;101873.19;5204802;28;20029;-74
2021/09/13 05:29:49;;;;;;;23.92;12.40;;;;;;;10.42;100.00;101870.22;5204527;28;20029;-73
2021/09/13 05:32:20;;;;;;;28.45;13.70;;;;;;;10.48;100.00;101875.03;5204464;28;20033;-73
2021/09/13 05:34:50;;;;;;;27.10;12.90;;;;;;;10.49;100.00;101885.63;5204437;28;20391;-73
2021/09/13 05:37:21;;;;;;;19.63;9.63;;;;;;;10.45;100.00;101881.53;5204268;28;20108;-73
2021/09/13 05:39:51;;;;;;;75.88;13.23;;;;;;;10.43;100.00;101888.84;5204386;28;20018;-75
2021/09/13 05:42:22;;;;;;;21.33;10.88;;;;;;;10.40;100.00;101873.06;5203758;28;20029;-72
2021/09/13 05:44:52;;;;;;;26.92;10.43;;;;;;;10.40;100.00;101881.09;5204284;28;20502;-72
2021/09/13 05:47:23;;;;;;;133.50;13.05;;;;;;;10.42;100.00;101889.84;5204002;28;20052;-71
2021/09/13 05:49:54;;;;;;;29.30;8.57;;;;;;;10.46;100.00;101891.25;5203645;28;20156;-71
2021/09/13 05:52:24;;;;;;;21.77;7.93;;;;;;;10.44;100.00;101881.66;5203596;28;20026;-71
2021/09/13 05:54:55;;;;;;;12.75;5.40;;;;;;;10.43;100.00;101891.53;5204221;28;20494;-71
2021/09/13 05:57:25;;;;;;;11.75;5.47;;;;;;;10.45;100.00;101886.91;5203881;28;20030;-71
2021/09/13 05:59:56;;;;;;;45.35;9.57;;;;;;;10.48;100.00;101883.06;5204202;28;20057;-71
2021/09/13 06:02:27;;;;;;;17.15;8.82;;;;;;;10.52;100.00;101895.22;5203495;28;20040;-71
2021/09/13 06:04:57;;;;;;;16.35;8.43;;;;;;;10.62;100.00;101894.22;5203616;28;20306;-71
2021/09/13 06:07:29;;;;;;;16.98;9.15;;;;;;;10.79;100.00;101899.88;5203926;28;20155;-72
2021/09/13 06:09:59;;;;;;;17.15;8.98;;;;;;;11.22;100.00;101891.34;5203952;28;20495;-71
2021/09/13 06:12:30;;;;;;;13.60;8.18;;;;;;;11.71;100.00;101899.25;5199729;28;20136;-72
2021/09/13 06:15:00;;;;;;;21.65;9.30;;;;;;;12.08;100.00;101889.31;5202042;28;20101;-71
2021/09/13 06:17:31;;;;;;;15.95;8.02;;;;;;;12.56;100.00;101893.53;5202591;28;20025;-72
2021/09/13 06:20:03;;;;;;;17.67;9.25;;;;;;;13.01;100.00;101895.25;5201247;28;20021;-71
2021/09/13 06:22:33;;;;;;;21.45;10.63;;;;;;;13.29;100.00;101906.75;5201925;28;20419;-72
2021/09/13 06:25:04;;;;;;;21.63;11.90;;;;;;;13.79;100.00;101897.09;5202063;28;20026;-72
2021/09/13 06:27:35;;;;;;;22.10;10.95;;;;;;;14.19;100.00;101893.69;5202271;28;20452;-71
2021/09/13 06:30:06;;;;;;;18.48;10.70;;;;;;;14.43;100.00;101890.22;5202232;28;20029;-71
2021/09/13 06:32:36;;;;;;;17.38;11.75;;;;;;;14.76;100.00;101888.44;5201992;28;20112;-72
2021/09/13 06:35:07;;;;;;;22.23;12.52;;;;;;;15.10;100.00;101895.50;5184304;28;20419;-73
2021/09/13 06:37:38;;;;;;;22.67;12.57;;;;;;;15.43;100.00;101894.44;5201924;28;20028;-72
2021/09/13 06:40:08;;;;;;;24.05;12.20;;;;;;;15.83;100.00;101900.78;5202192;28;20026;-72
2021/09/13 06:42:39;;;;;;;18.50;11.75;;;;;;;16.21;100.00;101898.22;5216381;28;20442;-72
2021/09/13 06:45:17;;;;;;;18.52;11.32;;;;;;;16.67;100.00;101893.69;5200281;28;20079;-72
2021/09/13 06:47:48;;;;;;;20.83;11.43;;;;;;;17.12;100.00;101902.84;5201948;28;20037;-72
2021/09/13 06:50:21;;;;;;;18.10;10.13;;;;;;;17.23;100.00;101907.81;5201266;28;20032;-72
2021/09/13 06:52:54;;;;;;;17.33;10.02;;;;;;;17.45;100.00;101914.19;5200940;28;20025;-73
2021/09/13 06:55:24;;;;;;;16.98;10.48;;;;;;;17.66;100.00;101910.72;5201593;28;20528;-73
2021/09/13 06:57:55;;;;;;;16.33;9.90;;;;;;;17.98;100.00;101914.13;5201547;28;20022;-72
2021/09/13 07:00:26;;;;;;;15.70;10.15;;;;;;;18.07;100.00;101905.69;5201825;28;20033;-72
2021/09/13 07:02:56;;;;;;;14.98;9.40;;;;;;;18.16;100.00;101911.84;5198982;28;20025;-72
2021/09/13 07:05:27;;;;;;;19.17;9.90;;;;;;;18.30;100.00;101905.53;5183005;28;20025;-72
2021/09/13 07:07:57;;;;;;;14.30;9.82;;;;;;;18.23;100.00;101915.50;5201191;28;20025;-73
2021/09/13 07:10:28;;;;;;;17.50;10.60;;;;;;;18.43;100.00;101914.88;5188394;28;20030;-72
2021/09/13 07:12:59;;;;;;;17.13;11.48;;;;;;;18.70;100.00;101914.13;5199894;28;20365;-72
2021/09/13 07:15:29;;;;;;;16.35;9.65;;;;;;;19.08;100.00;101913.88;5201512;28;20038;-73
2021/09/13 07:18:00;;;;;;;14.45;9.00;;;;;;;19.15;100.00;101920.19;5201383;28;20096;-72
2021/09/13 07:20:30;;;;;;;19.25;9.82;;;;;;;19.02;100.00;101926.34;5201491;28;20410;-72
2021/09/13 07:23:01;;;;;;;14.35;9.73;;;;;;;19.06;100.00;101922.22;5200352;28;20083;-73
2021/09/13 07:25:31;;;;;;;17.13;9.88;;;;;;;19.32;100.00;101929.72;5200269;28;20467;-72
2021/09/13 07:28:02;;;;;;;15.93;9.35;;;;;;;19.49;100.00;101932.19;5200235;28;20026;-73
2021/09/13 07:30:33;;;;;;;17.05;9.45;;;;;;;19.49;100.00;101930.28;5200968;28;20101;-72
2021/09/13 07:33:03;;;;;;;14.15;8.93;;;;;;;19.64;100.00;101930.22;5200108;28;20014;-73
2021/09/13 07:35:34;;;;;;;17.30;8.68;;;;;;;19.65;100.00;101921.84;5200433;28;20036;-73
2021/09/13 07:38:04;;;;;;;13.40;8.43;;;;;;;19.63;100.00;101912.22;5200529;28;20467;-73
2021/09/13 07:41:12;;;;;;;13.85;7.93;;;;;;;19.70;100.00;101918.50;5200344;28;20101;-72
2021/09/13 07:43:42;;;;;;;15.98;8.00;;;;;;;19.95;100.00;101915.31;5182778;28;20542;-73
2021/09/13 07:46:13;;;;;;;14.50;7.85;;;;;;;20.13;100.00;101912.84;5200141;28;20021;-73
2021/09/13 07:48:43;;;;;;;12.13;7.30;;;;;;;20.23;100.00;101924.22;5200691;28;20029;-72
2021/09/13 07:51:14;;;;;;;12.20;7.20;;;;;;;20.25;100.00;101927.56;5182434;28;20300;-73
2021/09/13 07:53:45;;;;;;;10.60;7.22;;;;;;;20.30;100.00;101927.81;5199779;28;20017;-73
2021/09/13 07:56:16;;;;;;;16.90;6.80;;;;;;;20.41;100.00;101910.00;5200394;28;20033;-72
2021/09/13 07:58:46;;;;;;;11.45;6.60;;;;;;;20.55;100.00;101911.75;5200203;28;20040;-72
2021/09/13 08:01:17;;;;;;;15.05;6.93;;;;;;;20.82;100.00;101914.53;5199636;28;20033;-72
2021/09/13 08:03:47;;;;;;;9.90;6.43;;;;;;;20.80;100.00;101912.00;5199824;28;20553;-72
2021/09/13 08:06:18;;;;;;;13.82;7.30;;;;;;;20.95;100.00;101911.81;5199977;28;20049;-73
2021/09/13 08:08:48;;;;;;;9.02;5.65;;;;;;;20.80;100.00;101912.00;5200546;28;20056;-73
2021/09/13 08:11:19;;;;;;;9.60;5.93;;;;;;;20.86;100.00;101913.91;5199233;28;20372;-73
2021/09/13 08:13:49;;;;;;;14.43;4.93;;;;;;;20.82;100.00;101914.53;5200358;28;20398;-72
2021/09/13 08:16:21;;;;;;;10.25;5.25;;;;;;;20.81;100.00;101923.75;5199988;28;20228;-73
2021/09/13 08:18:51;;;;;;;7.60;4.75;;;;;;;20.68;100.00;101919.09;5200690;28;20025;-72
2021/09/13 08:21:22;;;;;;;11.70;5.20;;;;;;;20.61;100.00;101919.09;5200016;28;20021;-72
2021/09/13 08:23:53;;;;;;;6.88;3.88;;;;;;;20.68;100.00;101919.97;5199639;28;20148;-72
2021/09/13 08:26:24;;;;;;;10.13;4.68;;;;;;;20.85;100.00;101914.13;5199645;28;20025;-73
2021/09/13 08:28:54;;;;;;;7.32;3.72;;;;;;;20.95;100.00;101920.00;5182386;28;20120;-72
2021/09/13 08:31:25;;;;;;;7.70;3.78;;;;;;;21.11;100.00;101921.47;5199721;28;20021;-73
2021/09/13 08:33:55;;;;;;;11.95;3.30;;;;;;;21.03;100.00;101927.13;5199466;28;20020;-73
2021/09/13 08:36:26;;;;;;;9.27;3.90;;;;;;;21.09;100.00;101929.03;5199021;28;20426;-73
2021/09/13 08:38:56;;;;;;;8.05;3.53;;;;;;;21.08;100.00;101938.25;5200511;28;20112;-73
2021/09/13 08:41:27;;;;;;;9.15;3.58;;;;;;;21.30;100.00;101928.84;5186375;28;20382;-72
2021/09/13 08:43:59;;;;;;;8.60;3.63;;;;;;;21.41;100.00;101939.13;5203681;28;20381;-73
2021/09/13 08:46:37;;;;;;;8.90;3.58;;;;;;;21.46;100.00;101942.03;5203565;28;20030;-73
2021/09/13 08:49:10;;;;;;;8.38;3.58;;;;;;;21.50;100.00;101942.47;5203244;28;20068;-73
2021/09/13 08:51:41;;;;;;;8.40;4.15;;;;;;;21.51;100.00;101952.34;5203883;28;20026;-73
2021/09/13 08:54:12;;;;;;;9.35;3.88;;;;;;;21.56;100.00;101949.81;5203617;28;20032;-73
2021/09/13 08:56:43;;;;;;;5.97;4.05;;;;;;;21.52;100.00;101937.63;5203205;28;20026;-73
2021/09/13 08:59:16;;;;;;;14.75;4.72;;;;;;;21.31;100.00;101941.44;5203484;28;20025;-73
2021/09/13 09:01:46;;;;;;;9.48;4.15;;;;;;;21.24;100.00;101937.84;5203163;28;20029;-73
2021/09/13 09:04:18;;;;;;;8.52;4.93;;;;;;;21.28;100.00;101943.69;5203440;28;20508;-73
2021/09/13 09:06:50;;;;;;;9.73;4.50;;;;;;;21.39;100.00;101949.41;5203244;28;20076;-73
2021/09/13 09:09:21;;;;;;;8.13;4.50;;;;;;;21.41;100.00;101950.03;5203647;28;20408;-73
2021/09/13 09:12:02;;;;;;;8.32;4.60;;;;;;;21.36;100.00;101947.09;5191049;28;20104;-73
2021/09/13 09:14:39;;;;;;;12.20;4.95;;;;;;;21.63;100.00;101958.81;5203753;28;20554;-73
2021/09/13 09:17:23;;;;;;;7.75;4.55;;;;;;;21.95;100.00;101956.25;5203676;28;20267;-74
2021/09/13 09:20:07;;;;;;;9.43;4.55;;;;;;;21.88;100.00;101955.41;5203847;28;20053;-73
2021/09/13 09:22:40;;;;;;;10.35;4.80;;;;;;;22.18;100.00;101953.03;5202562;28;20518;-73
2021/09/13 09:25:27;;;;;;;9.48;4.80;;;;;;;22.43;100.00;101944.91;5203069;28;20037;-72
2021/09/13 09:28:00;;;;;;;11.07;4.75;;;;;;;22.82;100.00;101946.56;5203149;28;20037;-74
2021/09/13 09:30:40;;;;;;;8.25;4.95;;;;;;;22.71;100.00;101942.66;5203114;28;20034;-73
2021/09/13 09:33:13;;;;;;;11.93;4.82;;;;;;;22.83;100.00;101945.50;5189817;28;20075;-73
2021/09/13 09:35:49;;;;;;;10.13;4.82;;;;;;;22.95;100.00;101949.25;5202772;28;20049;-73
2021/09/13 09:38:37;;;;;;;15.45;5.30;;;;;;;23.13;100.00;101945.72;5203164;28;20112;-73
2021/09/13 09:41:13;;;;;;;11.13;4.80;;;;;;;23.28;100.00;101942.66;5201901;28;20463;-73
2021/09/13 09:43:56;;;;;;;10.88;4.85;;;;;;;23.34;100.00;101939.00;5202255;28;20104;-73
2021/09/13 09:46:43;;;;;;;11.07;4.88;;;;;;;23.04;100.00;101935.28;5202842;28;20379;-73
2021/09/13 09:49:15;;;;;;;9.82;4.60;;;;;;;23.13;100.00;101933.94;5202379;28;20030;-74
2021/09/13 09:51:54;;;;;;;7.95;4.63;;;;;;;22.94;100.00;101936.63;5201712;28;20495;-73
2021/09/13 09:54:27;;;;;;;9.75;5.03;;;;;;;23.09;100.00;101935.44;5202755;28;20499;-73
2021/09/13 09:57:06;;;;;;;7.85;3.83;;;;;;;22.99;100.00;101928.59;5201896;28;20497;-73
2021/09/13 09:59:39;;;;;;;9.65;4.03;;;;;;;22.95;100.00;101927.38;5202690;28;20029;-74
2021/09/13 10:02:13;;;;;;;6.35;4.00;;;;;;;22.78;100.00;101928.09;5202163;28;20590;-73
2021/09/13 10:04:47;;;;;;;10.07;4.00;;;;;;;22.99;100.00;101925.88;5201767;28;20060;-73
2021/09/13 10:07:18;;;;;;;4.78;3.25;;;;;;;23.00;100.00;101922.06;5202226;28;20467;-73
2021/09/13 10:09:49;;;;;;;7.82;3.17;;;;;;;22.70;100.00;101908.16;5202198;28;20025;-73
2021/09/13 10:12:20;;;;;;;7.53;3.58;;;;;;;22.94;100.00;101908.41;5201585;28;20017;-73
2021/09/13 10:14:51;;;;;;;7.55;3.80;;;;;;;22.86;100.00;101909.50;5202580;28;20128;-73
2021/09/13 10:17:22;;;;;;;8.98;4.20;;;;;;;22.40;100.00;101905.19;5201830;28;20061;-74
2021/09/13 10:19:52;;;;;;;9.75;3.67;;;;;;;22.33;100.00;101895.34;5202631;28;20466;-73
2021/09/13 10:22:24;;;;;;;9.50;3.78;;;;;;;22.46;100.00;101893.38;5201816;28;20363;-73
2021/09/13 10:24:54;;;;;;;7.15;3.08;;;;;;;22.59;100.00;101895.19;5201764;28;20533;-73
2021/09/13 10:27:25;;;;;;;3.90;2.95;;;;;;;22.79;100.00;101900.50;5202260;28;20030;-74
2021/09/13 10:30:22;;;;;;;8.38;2.72;;;;;;;22.85;100.00;101896.91;5201879;28;20025;-73
2021/09/13 10:33:10;;;;;;;7.35;2.72;;;;;;;22.43;100.00;101892.97;5201247;28;20030;-73
2021/09/13 10:35:54;;;;;;;4.20;2.10;;;;;;;22.31;100.00;101894.72;5201476;28;20087;-73
2021/09/13 10:38:46;;;;;;;5.10;2.17;;;;;;;22.62;100.00;101900.22;5202055;28;20171;-74
2021/09/13 10:41:55;;;;;;;4.57;2.30;;;;;;;22.59;100.00;101897.94;5201255;28;20037;-74
2021/09/13 10:44:30;;;;;;;5.78;2.35;;;;;;;22.47;100.00;101894.22;5202071;28;20026;-74
2021/09/13 10:47:02;;;;;;;5.78;2.30;;;;;;;22.57;100.00;101891.00;5201343;28;20120;-74
2021/09/13 10:49:32;;;;;;;5.20;2.90;;;;;;;22.67;100.00;101894.06;5202311;28;20033;-73
2021/09/13 10:52:28;;;;;;;8.25;3.42;;;;;;;22.95;100.00;101888.22;5199748;28;20037;-74
2021/09/13 10:55:08;;;;;;;5.60;3.33;;;;;;;23.05;100.00;101888.56;5201517;28;20064;-73
2021/09/13 10:57:58;;;;;;;7.50;3.28;;;;;;;23.00;100.00;101877.44;5201976;28;20040;-74
2021/09/13 11:00:37;;;;;;;7.95;2.85;;;;;;;23.01;100.00;101876.38;5201210;28;20119;-73
2021/09/13 11:03:18;;;;;;;7.05;2.90;;;;;;;22.97;100.00;101873.25;5200259;28;20477;-73
2021/09/13 11:08:44;;;;;;;8.07;2.92;;;;;;;23.10;100.00;101866.00;5200964;28;20037;-73
2021/09/13 11:11:18;;;;;;;4.40;2.90;;;;;;;22.92;100.00;101864.88;5201312;28;20033;-74
2021/09/13 11:14:07;;;;;;;7.32;2.55;;;;;;;22.70;100.00;101867.13;5200669;28;20032;-73
2021/09/13 11:16:42;;;;;;;4.85;2.63;;;;;;;22.89;100.00;101857.13;5200911;28;20032;-74
2021/09/13 11:19:15;;;;;;;7.10;2.50;;;;;;;22.66;100.00;101851.38;5200998;28;20040;-74
2021/09/13 11:21:54;;;;;;;7.47;2.90;;;;;;;22.60;100.00;101849.53;5200935;28;20033;-75
2021/09/13 11:24:27;;;;;;;9.40;3.47;;;;;;;22.62;100.00;101844.69;5200811;28;20025;-74
2021/09/13 11:27:00;;;;;;;10.30;3.35;;;;;;;22.80;100.00;101839.28;5201045;28;20033;-74
2021/09/13 11:29:32;;;;;;;8.30;3.72;;;;;;;22.89;100.00;101828.91;5200862;28;20180;-73
2021/09/13 11:32:04;;;;;;;9.90;3.85;;;;;;;23.04;100.00;101834.03;5200538;28;20025;-74
2021/09/13 11:34:35;;;;;;;5.78;2.95;;;;;;;23.20;100.00;101825.25;5200976;28;20041;-73
2021/09/13 11:37:12;;;;;;;6.82;3.10;;;;;;;22.68;100.00;101832.84;5201181;28;20056;-74
2021/09/13 11:39:47;;;;;;;10.55;3.25;;;;;;;22.37;100.00;101831.81;5200360;28;20033;-74